Time;durP1;ratioP1;P1;durP2;ratioP2;P2;SDS_P1;SDS_P2;PMS_P1;PMS_P2;Temp;Humidity;BMP_temperature;BMP_pressure;BME280_temperature;BME280_humidity;BME280_pressure;Samples;Min_cycle;Max_cycle;Signal;HPM_P1;HPM_P2
2022/05/07 09:51:36;;;;;;;2.03;1.80;;;33.90;44.70;;;;;;3840796;22;20058;-85
2022/05/07 09:59:32;;;;;;;12.15;8.25;;;35.00;42.30;;;;;;4995230;28;20053;-86
2022/05/07 10:02:21;;;;;;;3.13;1.65;;;35.60;41.60;;;;;;4994718;28;20026;-86
2022/05/07 10:05:06;;;;;;;5.90;1.40;;;35.60;41.10;;;;;;4974575;28;20026;-86
2022/05/07 10:07:50;;;;;;;4.55;1.42;;;34.30;40.90;;;;;;4969956;28;20058;-85
2022/05/07 10:10:28;;;;;;;3.60;1.30;;;32.50;40.70;;;;;;4993810;28;20133;-86
2022/05/07 10:12:57;;;;;;;2.65;1.38;;;30.60;42.00;;;;;;4978321;28;20022;-86
2022/05/07 10:15:25;;;;;;;3.22;1.88;;;30.50;43.70;;;;;;5013209;28;20116;-85
2022/05/07 10:18:03;;;;;;;2.13;1.42;;;32.20;42.40;;;;;;5013294;28;20026;-85
2022/05/07 10:20:45;;;;;;;1.95;1.35;;;33.50;40.30;;;;;;4988085;28;20120;-85
2022/05/07 10:23:12;;;;;;;3.17;2.20;;;34.70;40.30;;;;;;4989934;28;20018;-86
2022/05/07 10:25:40;;;;;;;4.50;1.98;;;34.00;39.40;;;;;;4992783;28;20034;-84
2022/05/07 10:28:15;;;;;;;32.15;4.65;;;33.20;40.20;;;;;;4993583;28;20026;-86
2022/05/07 10:30:54;;;;;;;3.25;2.20;;;31.40;40.60;;;;;;4975917;28;20105;-85
2022/05/07 10:33:21;;;;;;;3.75;1.98;;;32.00;41.00;;;;;;4975843;28;20376;-85
2022/05/07 10:35:58;;;;;;;94.07;20.73;;;32.80;40.70;;;;;;4992784;28;20558;-85
2022/05/07 10:38:26;;;;;;;2.90;1.70;;;33.30;40.60;;;;;;4975658;28;20031;-86
2022/05/07 10:40:59;;;;;;;9.98;2.90;;;32.40;40.50;;;;;;4975889;28;20045;-85
2022/05/07 10:43:36;;;;;;;36.53;7.15;;;31.00;41.80;;;;;;4974870;28;20109;-86
2022/05/07 10:46:02;;;;;;;2.45;1.67;;;31.20;41.90;;;;;;4974998;28;20037;-85
2022/05/07 10:48:28;;;;;;;4.75;1.98;;;30.70;42.20;;;;;;4975216;28;20026;-85
2022/05/07 10:50:58;;;;;;;9.00;2.42;;;30.30;42.30;;;;;;4991827;28;20073;-85
2022/05/07 10:53:38;;;;;;;5.68;2.22;;;30.20;42.50;;;;;;4974832;28;20033;-86
2022/05/07 10:56:04;;;;;;;3.00;2.25;;;30.10;42.60;;;;;;4974400;28;20109;-85
2022/05/07 10:58:30;;;;;;;4.18;1.73;;;30.00;43.10;;;;;;4976443;28;20049;-86
2022/05/07 11:00:58;;;;;;;3.15;2.08;;;29.80;43.60;;;;;;4974848;28;20513;-85
2022/05/07 11:03:27;;;;;;;2.00;1.60;;;29.60;43.20;;;;;;4974463;28;20026;-85
2022/05/07 11:06:00;;;;;;;6.13;1.77;;;29.10;43.40;;;;;;4992218;28;20030;-85
2022/05/07 11:08:29;;;;;;;4.82;2.10;;;28.60;43.70;;;;;;4992849;28;20562;-86
2022/05/07 11:11:10;;;;;;;10.73;2.55;;;28.10;44.20;;;;;;4975289;28;20137;-86
2022/05/07 11:13:46;;;;;;;2.90;1.90;;;27.80;44.60;;;;;;4974646;28;20503;-85
2022/05/07 11:16:12;;;;;;;6.15;2.20;;;27.40;45.10;;;;;;4974182;28;20061;-85
2022/05/07 11:18:41;;;;;;;9.27;2.55;;;27.00;45.30;;;;;;4974692;28;20029;-85
2022/05/07 11:21:08;;;;;;;4.07;2.22;;;26.70;44.80;;;;;;4975637;28;20049;-85
2022/05/07 11:23:39;;;;;;;5.95;2.35;;;26.50;44.80;;;;;;4971838;28;20051;-85
2022/05/07 11:26:20;;;;;;;4.30;2.47;;;26.30;44.90;;;;;;4955139;28;20101;-85
2022/05/07 11:28:46;;;;;;;7.18;2.65;;;26.30;45.10;;;;;;4973338;28;20029;-86
2022/05/07 11:31:29;;;;;;;2.80;2.60;;;26.40;46.00;;;;;;4956367;28;20041;-84
2022/05/07 11:34:09;;;;;;;26.25;17.25;;;26.30;45.70;;;;;;4961177;28;20026;-85
2022/05/07 11:36:36;;;;;;;7.70;3.50;;;26.40;46.40;;;;;;4955477;28;20038;-84
2022/05/07 11:39:05;;;;;;;2.65;2.45;;;26.50;46.60;;;;;;4974177;28;20089;-85
2022/05/07 11:41:31;;;;;;;6.10;2.53;;;26.60;46.20;;;;;;4973556;28;20102;-85
2022/05/07 11:46:51;;;;;;;5.07;2.38;;;26.70;46.40;;;;;;4974348;28;20290;-85
2022/05/07 11:49:33;;;;;;;5.88;3.17;;;26.60;46.70;;;;;;4971485;28;20017;-85
2022/05/07 11:52:10;;;;;;;2.92;2.63;;;26.40;46.70;;;;;;4984008;28;20066;-86
2022/05/07 11:54:47;;;;;;;4.90;2.60;;;26.00;47.10;;;;;;4976058;28;20466;-85
2022/05/07 11:57:13;;;;;;;6.53;2.80;;;25.80;47.10;;;;;;4998105;28;20132;-85
2022/05/07 11:59:43;;;;;;;4.28;2.70;;;25.70;47.20;;;;;;5005528;28;20094;-84
2022/05/07 12:02:08;;;;;;;6.45;2.70;;;25.60;47.10;;;;;;5000871;28;20022;-85
2022/05/07 12:04:34;;;;;;;5.97;2.50;;;25.60;47.60;;;;;;5019897;28;20058;-85
2022/05/07 12:06:59;;;;;;;5.95;2.38;;;25.70;47.30;;;;;;5003103;28;20030;-85
2022/05/07 12:09:27;;;;;;;6.32;2.70;;;25.80;47.60;;;;;;5006866;28;20042;-85
2022/05/07 12:11:53;;;;;;;3.05;2.42;;;25.90;47.40;;;;;;4996347;28;20058;-86
2022/05/07 12:14:19;;;;;;;3.47;2.40;;;26.00;47.00;;;;;;4977832;28;20037;-84
2022/05/07 12:19:30;;;;;;;7.03;2.90;;;26.00;47.20;;;;;;4995790;28;20033;-85
2022/05/07 12:30:14;;;;;;;4.68;2.70;;;26.10;47.00;;;;;;4995762;28;20146;-85
2022/05/07 12:32:43;;;;;;;3.58;2.15;;;26.30;47.30;;;;;;4977847;28;20058;-86
2022/05/07 12:35:09;;;;;;;3.05;2.60;;;26.40;47.30;;;;;;4977707;28;20036;-85
2022/05/07 12:37:37;;;;;;;4.25;2.45;;;26.60;46.70;;;;;;4995034;28;20029;-85
2022/05/07 12:40:07;;;;;;;4.45;2.80;;;26.50;46.50;;;;;;4977828;28;20044;-85
2022/05/07 12:42:33;;;;;;;4.60;3.00;;;26.30;46.70;;;;;;4977921;28;20081;-85
2022/05/07 12:44:58;;;;;;;7.75;2.90;;;26.00;46.20;;;;;;4977433;28;20026;-85
2022/05/07 12:47:24;;;;;;;8.80;6.32;;;25.60;46.40;;;;;;4977877;28;20054;-84
2022/05/07 12:49:49;;;;;;;5.30;2.88;;;25.50;47.50;;;;;;4995415;28;20027;-85
2022/05/07 12:52:16;;;;;;;5.80;2.78;;;25.50;47.50;;;;;;4978098;28;20038;-85
2022/05/07 12:54:42;;;;;;;4.47;2.80;;;25.40;47.00;;;;;;4976934;28;20030;-86
2022/05/07 12:57:08;;;;;;;3.80;2.30;;;25.40;46.70;;;;;;4978135;28;20442;-85
2022/05/07 12:59:36;;;;;;;4.43;2.30;;;25.30;46.70;;;;;;4977766;28;20061;-85
2022/05/07 13:02:03;;;;;;;4.88;2.47;;;25.30;47.30;;;;;;4977310;28;20161;-85
2022/05/07 13:04:29;;;;;;;4.63;2.20;;;25.30;47.90;;;;;;4993978;28;20109;-86
2022/05/07 13:06:54;;;;;;;4.45;2.60;;;25.30;47.50;;;;;;4976502;28;20069;-85
2022/05/07 13:09:20;;;;;;;5.43;2.20;;;25.30;47.70;;;;;;4994737;28;20046;-85
2022/05/07 13:11:46;;;;;;;2.65;2.20;;;25.40;47.20;;;;;;4977766;28;20029;-86
2022/05/07 13:14:12;;;;;;;2.95;2.00;;;25.30;47.20;;;;;;4993629;28;20038;-85
2022/05/07 13:16:38;;;;;;;4.82;2.50;;;25.20;46.60;;;;;;4994677;28;20101;-85
2022/05/07 13:19:03;;;;;;;6.35;2.30;;;25.00;46.20;;;;;;4977225;28;20030;-85
2022/05/07 13:21:29;;;;;;;2.67;1.95;;;24.80;46.20;;;;;;4986822;28;20027;-85
2022/05/07 13:23:54;;;;;;;2.63;2.17;;;24.50;46.20;;;;;;4994615;28;20031;-85
2022/05/07 13:26:20;;;;;;;4.43;2.42;;;24.30;46.40;;;;;;4993809;28;20036;-85
2022/05/07 13:28:46;;;;;;;5.72;2.40;;;24.20;46.70;;;;;;4976088;28;20121;-85
2022/05/07 13:31:11;;;;;;;3.45;1.92;;;24.10;46.70;;;;;;4994716;28;20387;-85
2022/05/07 13:33:37;;;;;;;5.45;2.30;;;24.10;47.10;;;;;;4993678;28;20049;-85
2022/05/07 13:36:03;;;;;;;5.13;2.30;;;24.10;47.30;;;;;;4980072;28;20084;-86
2022/05/07 13:38:29;;;;;;;6.47;2.22;;;24.10;47.50;;;;;;4996562;28;20022;-85
2022/05/07 13:40:55;;;;;;;4.45;2.15;;;24.10;47.70;;;;;;4997259;28;20034;-85
2022/05/07 13:43:20;;;;;;;5.57;2.40;;;24.10;47.60;;;;;;4994027;28;20383;-85
2022/05/07 13:45:46;;;;;;;15.07;10.38;;;24.00;47.60;;;;;;4975046;28;20030;-85
2022/05/07 13:48:12;;;;;;;3.38;2.20;;;24.00;47.70;;;;;;4993414;28;20113;-84
2022/05/07 13:50:37;;;;;;;6.10;2.10;;;23.90;47.80;;;;;;4968913;28;20113;-86
2022/05/07 13:53:03;;;;;;;4.68;2.00;;;23.80;47.90;;;;;;4993878;28;20022;-85
2022/05/07 13:55:29;;;;;;;2.88;1.98;;;23.80;47.80;;;;;;4992961;28;20069;-85
2022/05/07 13:57:55;;;;;;;5.00;2.08;;;23.70;47.60;;;;;;4994010;28;20022;-85
2022/05/07 14:00:21;;;;;;;3.33;2.30;;;23.70;47.90;;;;;;4976197;28;20497;-85
2022/05/07 14:02:47;;;;;;;2.65;1.85;;;23.70;47.60;;;;;;4975592;28;20402;-86
2022/05/07 14:05:16;;;;;;;8.93;2.03;;;23.60;47.60;;;;;;4993396;28;20491;-85
2022/05/07 14:07:43;;;;;;;4.38;2.00;;;23.50;47.30;;;;;;4976356;28;20034;-85
2022/05/07 14:10:09;;;;;;;2.30;1.83;;;23.50;47.80;;;;;;4976525;28;20033;-86
2022/05/07 14:12:35;;;;;;;3.15;2.05;;;23.40;48.30;;;;;;4975510;28;20453;-85
2022/05/07 14:15:02;;;;;;;3.10;1.67;;;23.40;47.90;;;;;;4992904;28;20027;-85
2022/05/07 14:17:29;;;;;;;6.43;1.95;;;23.40;48.30;;;;;;4975808;28;20081;-85
2022/05/07 14:19:59;;;;;;;5.53;2.03;;;23.50;48.60;;;;;;4973062;28;20054;-86
2022/05/07 14:22:26;;;;;;;2.53;1.92;;;23.50;48.50;;;;;;4971302;28;20076;-85
2022/05/07 14:24:54;;;;;;;2.85;2.20;;;23.40;48.30;;;;;;4971348;28;20083;-86
2022/05/07 14:27:20;;;;;;;3.88;2.15;;;23.40;48.20;;;;;;4992710;28;20030;-85
2022/05/07 14:29:45;;;;;;;3.20;2.00;;;23.40;48.80;;;;;;4993184;28;20027;-86
2022/05/07 14:32:11;;;;;;;6.60;1.98;;;23.30;48.80;;;;;;4975978;28;20027;-86
2022/05/07 14:34:37;;;;;;;5.28;1.83;;;23.30;48.80;;;;;;4975091;28;20026;-86
2022/05/07 14:37:03;;;;;;;2.72;1.90;;;23.20;48.50;;;;;;4975934;28;20022;-85
2022/05/07 14:39:29;;;;;;;2.65;1.80;;;23.10;48.80;;;;;;4992607;28;20032;-85
2022/05/07 14:41:55;;;;;;;7.85;1.77;;;23.00;48.90;;;;;;4975207;28;20026;-85
2022/05/07 14:44:21;;;;;;;4.35;1.77;;;23.00;49.20;;;;;;4991190;28;20057;-85
2022/05/07 14:46:47;;;;;;;4.68;1.88;;;22.90;49.20;;;;;;4975024;28;20030;-86
2022/05/07 14:49:12;;;;;;;2.85;2.03;;;22.90;49.00;;;;;;4975368;28;20038;-86
2022/05/07 14:51:38;;;;;;;6.07;2.00;;;22.90;49.00;;;;;;4984682;28;20085;-85
2022/05/07 14:54:07;;;;;;;2.85;1.77;;;22.90;49.20;;;;;;4992457;28;20506;-85
2022/05/07 14:56:33;;;;;;;4.30;1.80;;;22.90;48.70;;;;;;4975372;28;20035;-87
2022/05/07 14:58:58;;;;;;;1.85;1.40;;;22.90;48.60;;;;;;4975289;28;20034;-86
2022/05/07 15:01:25;;;;;;;1.60;1.50;;;22.80;48.40;;;;;;4993540;28;20018;-86
2022/05/07 15:03:51;;;;;;;4.63;1.70;;;22.80;48.30;;;;;;4992502;28;20029;-86
2022/05/07 15:06:17;;;;;;;2.10;1.52;;;22.80;48.40;;;;;;4975029;28;20115;-86
2022/05/07 15:11:27;;;;;;;2.78;1.65;;;22.70;48.80;;;;;;4992839;28;20064;-87
2022/05/07 15:13:53;;;;;;;2.00;1.60;;;22.70;49.00;;;;;;4975219;28;20630;-86
2022/05/07 15:16:19;;;;;;;2.05;1.67;;;22.60;49.20;;;;;;4974956;28;20466;-86
2022/05/07 15:18:46;;;;;;;96.22;64.30;;;22.50;49.10;;;;;;4974794;28;20024;-86
2022/05/07 15:21:12;;;;;;;3.33;2.78;;;22.50;49.20;;;;;;4974678;28;20049;-85
2022/05/07 15:23:38;;;;;;;3.03;2.08;;;22.40;49.00;;;;;;4971446;28;20144;-86
2022/05/07 15:26:05;;;;;;;2.60;1.80;;;22.30;49.20;;;;;;4972831;28;20577;-85
2022/05/07 15:28:30;;;;;;;6.18;1.70;;;22.30;49.30;;;;;;4955279;28;20436;-86
2022/05/07 15:30:56;;;;;;;2.10;1.52;;;22.30;49.40;;;;;;4973187;28;20025;-84
2022/05/07 15:38:50;;;;;;;3.83;1.70;;;22.30;49.40;;;;;;4992400;28;20109;-84
2022/05/07 15:41:17;;;;;;;3.72;1.67;;;22.30;49.20;;;;;;4992136;28;20021;-86
2022/05/07 15:43:43;;;;;;;2.92;1.30;;;22.30;49.20;;;;;;4974745;28;20478;-85
2022/05/07 15:46:08;;;;;;;4.07;1.50;;;22.30;49.20;;;;;;4974080;28;20030;-86
2022/05/07 15:48:35;;;;;;;1.70;1.60;;;22.30;49.40;;;;;;4974132;28;20027;-85
2022/05/07 18:09:07;;;;;;;1.80;0.98;;;20.70;51.60;;;;;;5031397;28;20129;-88
2022/05/07 18:26:10;;;;;;;6.88;1.52;;;20.30;52.70;;;;;;4915712;29;20088;-90
2022/05/07 18:32:55;;;;;;;2.40;1.20;;;20.20;53.10;;;;;;4900594;29;20039;-90
2022/05/07 18:43:13;;;;;;;4.25;1.50;;;19.90;53.40;;;;;;4880870;29;20024;-89
2022/05/07 19:03:11;;;;;;;3.05;1.25;;;19.40;53.80;;;;;;4819059;29;20038;-89
2022/05/07 19:13:33;;;;;;;4.75;1.27;;;19.20;54.40;;;;;;4825071;29;20159;-89
2022/05/07 19:20:40;;;;;;;18.65;12.90;;;19.00;54.50;;;;;;4768136;30;20202;-90
2022/05/07 20:01:15;;;;;;;3.42;1.45;;;18.20;55.80;;;;;;4928887;29;20063;-90
2022/05/07 20:08:11;;;;;;;2.40;1.60;;;18.10;56.50;;;;;;4915356;29;20558;-90
2022/05/07 20:15:23;;;;;;;3.40;1.50;;;17.90;57.10;;;;;;4896163;29;20047;-91
2022/05/07 20:22:06;;;;;;;5.57;2.80;;;17.80;57.40;;;;;;4826314;29;20476;-90
2022/05/07 20:25:41;;;;;;;30.90;13.95;;;17.70;57.60;;;;;;4808064;29;20522;-91
2022/05/07 21:54:03;;;;;;;6.55;5.13;;;15.60;61.90;;;;;;5022470;28;20133;-89
2022/05/07 21:56:31;;;;;;;8.32;5.68;;;15.50;62.40;;;;;;4997156;28;20036;-89
2022/05/07 21:58:58;;;;;;;8.15;5.40;;;15.50;62.90;;;;;;4996022;28;20018;-87
2022/05/07 22:01:24;;;;;;;8.93;5.82;;;15.50;63.10;;;;;;4997416;28;20030;-88
2022/05/07 22:03:50;;;;;;;8.40;5.07;;;15.40;63.20;;;;;;4995817;28;20124;-88
2022/05/07 22:06:16;;;;;;;5.22;4.63;;;15.40;63.30;;;;;;4996689;28;20512;-89
2022/05/07 22:08:41;;;;;;;4.90;4.45;;;15.40;63.50;;;;;;4996747;28;20165;-88
2022/05/07 22:11:07;;;;;;;8.85;4.60;;;15.30;63.70;;;;;;4995265;28;20140;-89
2022/05/07 22:13:33;;;;;;;7.10;5.05;;;15.30;63.90;;;;;;4996178;28;20045;-89
2022/05/07 22:15:58;;;;;;;5.93;4.72;;;15.30;64.10;;;;;;4995820;28;20033;-89
2022/05/07 22:18:24;;;;;;;5.88;4.93;;;15.20;64.40;;;;;;4989269;28;20030;-88
2022/05/07 22:20:50;;;;;;;6.45;4.80;;;15.20;64.40;;;;;;5012034;28;20474;-88
2022/05/07 22:23:18;;;;;;;7.93;4.55;;;15.20;64.60;;;;;;5003350;28;20038;-89
2022/05/07 22:25:43;;;;;;;8.43;4.82;;;15.10;64.70;;;;;;4996167;28;20394;-88
2022/05/07 22:28:09;;;;;;;7.05;4.80;;;15.10;64.80;;;;;;4994731;28;20022;-88
2022/05/07 22:30:35;;;;;;;4.82;4.32;;;15.10;65.10;;;;;;4990633;28;20052;-86
2022/05/07 22:33:00;;;;;;;6.60;5.30;;;15.10;65.20;;;;;;4996079;28;20018;-87
2022/05/07 22:35:26;;;;;;;5.78;5.10;;;15.00;65.30;;;;;;5002079;28;20050;-88
2022/05/07 22:37:52;;;;;;;7.82;5.53;;;15.00;65.40;;;;;;4993381;28;20018;-88
2022/05/07 22:40:17;;;;;;;6.22;5.10;;;14.90;65.40;;;;;;4995656;28;20080;-88
2022/05/07 22:42:45;;;;;;;5.80;4.93;;;14.90;65.50;;;;;;4996117;28;20018;-88
2022/05/07 22:45:11;;;;;;;9.27;5.47;;;14.90;65.80;;;;;;4991320;28;20614;-88
2022/05/07 22:47:40;;;;;;;6.80;5.15;;;14.80;66.40;;;;;;4991843;28;20124;-88
2022/05/07 22:50:07;;;;;;;9.38;5.90;;;14.80;66.10;;;;;;4995789;28;20120;-88
2022/05/07 22:52:33;;;;;;;12.27;8.55;;;14.70;66.00;;;;;;4995562;28;20026;-88
2022/05/07 22:54:59;;;;;;;19.98;11.52;;;14.70;66.00;;;;;;4995353;28;20025;-88
2022/05/07 22:57:24;;;;;;;13.55;10.23;;;14.60;66.00;;;;;;4995395;28;20057;-88
2022/05/07 22:59:50;;;;;;;14.07;9.80;;;14.50;66.10;;;;;;5012997;28;20033;-88
2022/05/07 23:02:15;;;;;;;13.88;7.47;;;14.40;66.40;;;;;;4996329;28;20404;-88
2022/05/07 23:04:41;;;;;;;9.68;7.55;;;14.30;66.70;;;;;;5012986;28;20026;-89
2022/05/07 23:07:08;;;;;;;8.30;6.93;;;14.20;66.90;;;;;;4994785;28;20053;-88
2022/05/07 23:09:33;;;;;;;9.77;6.80;;;14.20;67.20;;;;;;4995532;28;20045;-88
2022/05/07 23:11:59;;;;;;;10.07;7.35;;;14.10;67.30;;;;;;4995306;28;20053;-89
2022/05/07 23:14:25;;;;;;;7.47;6.75;;;14.10;67.40;;;;;;4994801;28;20083;-88
2022/05/07 23:16:50;;;;;;;10.73;7.55;;;14.10;67.50;;;;;;4995717;28;20176;-89
2022/05/07 23:19:16;;;;;;;11.02;7.68;;;14.10;67.60;;;;;;5013535;28;20459;-89
2022/05/07 23:21:41;;;;;;;9.82;7.20;;;14.00;67.70;;;;;;5002714;28;20006;-88
2022/05/07 23:24:09;;;;;;;13.70;7.70;;;13.90;67.90;;;;;;5033686;28;20026;-88
2022/05/07 23:26:34;;;;;;;10.52;7.47;;;13.90;68.20;;;;;;5018533;28;20017;-88
2022/05/07 23:29:01;;;;;;;7.07;6.22;;;13.80;68.50;;;;;;5015670;28;20050;-87
2022/05/07 23:31:26;;;;;;;9.30;7.18;;;13.80;68.60;;;;;;4986959;28;20109;-88
2022/05/07 23:33:52;;;;;;;22.63;12.63;;;13.80;68.60;;;;;;4976208;28;20502;-88
2022/05/07 23:36:18;;;;;;;22.25;12.50;;;13.80;68.50;;;;;;4983666;28;20164;-88
2022/05/07 23:38:43;;;;;;;32.67;16.08;;;13.80;68.70;;;;;;4994305;28;20038;-88
2022/05/07 23:41:09;;;;;;;28.85;15.57;;;13.70;68.70;;;;;;5011173;28;20032;-89
2022/05/07 23:43:35;;;;;;;24.45;14.57;;;13.70;68.90;;;;;;5011335;28;20026;-89
2022/05/07 23:46:00;;;;;;;26.08;14.32;;;13.70;69.10;;;;;;5010674;28;20126;-88
2022/05/07 23:48:26;;;;;;;24.38;14.25;;;13.70;69.20;;;;;;5010756;28;20113;-88
2022/05/07 23:50:52;;;;;;;23.20;14.45;;;13.60;69.10;;;;;;5012911;28;20037;-89
2022/05/07 23:53:17;;;;;;;23.80;12.98;;;13.70;69.30;;;;;;4998024;28;20034;-88
2022/05/07 23:55:43;;;;;;;17.65;11.50;;;13.60;69.30;;;;;;5014523;28;20037;-88
2022/05/07 23:58:08;;;;;;;13.88;10.00;;;13.50;69.30;;;;;;5014008;28;20041;-89
